Time;durP1;ratioP1;P1;durP2;ratioP2;P2;SDS_P1;SDS_P2;PMS_P1;PMS_P2;Temp;Humidity;BMP_temperature;BMP_pressure;BME280_temperature;BME280_humidity;BME280_pressure;Samples;Min_cycle;Max_cycle;Signal;HPM_P1;HPM_P2
2023/05/30 00:00:05;;;;;;;4.87;3.77;;;;;;;12.42;100.00;99417.50;5055611;28;20188;-78
2023/05/30 00:02:32;;;;;;;4.83;3.90;;;;;;;12.41;100.00;99421.25;5054677;28;20223;-79
2023/05/30 00:05:00;;;;;;;4.47;3.90;;;;;;;12.36;100.00;99421.94;5057410;28;20189;-78
2023/05/30 00:07:27;;;;;;;5.47;3.87;;;;;;;12.28;100.00;99416.13;5058409;28;20242;-78
2023/05/30 00:09:54;;;;;;;5.47;4.07;;;;;;;12.26;100.00;99416.38;5059525;28;20183;-78
2023/05/30 00:12:21;;;;;;;7.57;3.83;;;;;;;12.22;100.00;99415.22;5059142;28;20190;-78
2023/05/30 00:14:48;;;;;;;4.20;3.80;;;;;;;12.23;100.00;99416.84;5059064;28;20209;-78
2023/05/30 00:17:16;;;;;;;6.33;4.50;;;;;;;12.11;100.00;99412.53;5058927;28;20187;-78
2023/05/30 00:19:44;;;;;;;4.73;3.80;;;;;;;12.10;100.00;99417.09;5060152;28;20246;-79
2023/05/30 00:22:11;;;;;;;5.30;3.73;;;;;;;12.08;100.00;99415.69;5061152;28;20279;-78
2023/05/30 00:24:38;;;;;;;6.43;4.00;;;;;;;12.09;100.00;99426.19;5041726;28;20273;-79
2023/05/30 00:27:05;;;;;;;4.57;4.13;;;;;;;12.03;100.00;99416.41;5060289;28;20182;-78
2023/05/30 00:29:33;;;;;;;4.83;4.00;;;;;;;11.98;100.00;99421.66;5065094;28;20714;-81
2023/05/30 00:32:00;;;;;;;6.27;4.30;;;;;;;11.96;100.00;99422.91;5064880;28;20690;-80
2023/05/30 00:34:32;;;;;;;5.07;4.20;;;;;;;11.95;100.00;99427.47;5065086;28;20202;-80
2023/05/30 00:36:59;;;;;;;4.97;3.93;;;;;;;11.86;100.00;99427.00;5065354;28;20175;-81
2023/05/30 00:39:26;;;;;;;5.87;4.40;;;;;;;11.90;100.00;99425.47;5065589;28;20183;-81
2023/05/30 00:41:53;;;;;;;6.57;4.00;;;;;;;11.87;100.00;99425.97;5074951;28;20239;-81
2023/05/30 00:44:25;;;;;;;6.33;3.70;;;;;;;11.82;100.00;99417.78;5085593;28;20185;-81
2023/05/30 00:46:52;;;;;;;4.80;3.97;;;;;;;11.80;100.00;99419.88;5078745;28;20192;-81
2023/05/30 00:49:22;;;;;;;4.93;4.10;;;;;;;11.82;100.00;99419.66;5079252;28;20190;-80
2023/05/30 00:51:52;;;;;;;4.27;3.87;;;;;;;11.82;100.00;99417.78;5069525;28;20213;-81
2023/05/30 00:54:26;;;;;;;5.90;4.03;;;;;;;11.83;100.00;99418.59;5064130;28;20194;-81
2023/05/30 00:56:55;;;;;;;5.70;3.87;;;;;;;11.86;100.00;99431.56;5074288;28;20203;-81
2023/05/30 00:59:45;;;;;;;5.20;4.07;;;;;;;11.78;100.00;99423.84;5078978;28;20190;-81
2023/05/30 01:02:17;;;;;;;5.87;3.90;;;;;;;11.81;100.00;99424.19;5052132;28;20238;-81
2023/05/30 01:04:52;;;;;;;4.20;3.80;;;;;;;11.75;100.00;99427.84;5071358;28;20192;-82
2023/05/30 01:08:03;;;;;;;4.90;3.47;;;;;;;11.73;100.00;99429.09;5076434;28;20293;-83
2023/05/30 01:11:47;;;;;;;7.07;3.53;;;;;;;11.67;100.00;99430.81;5071866;28;20249;-83
2023/05/30 01:15:11;;;;;;;6.60;4.10;;;;;;;11.61;100.00;99423.69;5083089;28;20218;-82
2023/05/30 01:18:11;;;;;;;4.33;3.67;;;;;;;11.63;100.00;99429.63;5069381;28;20208;-79
2023/05/30 01:20:44;;;;;;;6.23;4.00;;;;;;;11.59;100.00;99424.97;5065775;28;20190;-79
2023/05/30 01:23:53;;;;;;;6.10;4.20;;;;;;;11.60;100.00;99421.22;5054065;28;20192;-79
2023/05/30 01:26:23;;;;;;;4.77;4.00;;;;;;;11.56;100.00;99426.25;5072230;28;20202;-79
2023/05/30 01:28:51;;;;;;;5.80;3.80;;;;;;;11.51;100.00;99425.31;5067369;28;20656;-79
2023/05/30 01:31:19;;;;;;;5.73;3.80;;;;;;;11.47;100.00;99430.31;5048526;28;20203;-79
2023/05/30 01:33:46;;;;;;;5.93;4.47;;;;;;;11.46;100.00;99429.50;5070729;28;20200;-79
2023/05/30 01:36:13;;;;;;;5.87;4.00;;;;;;;11.49;100.00;99425.53;5066788;28;20199;-78
2023/05/30 01:38:40;;;;;;;4.90;3.80;;;;;;;11.45;100.00;99432.41;5072573;28;20188;-79
2023/05/30 01:41:30;;;;;;;4.27;3.80;;;;;;;11.48;100.00;99423.88;5072639;28;20229;-79
2023/05/30 01:44:09;;;;;;;7.70;4.00;;;;;;;11.46;100.00;99420.63;5059933;28;20837;-80
2023/05/30 01:46:38;;;;;;;4.40;3.77;;;;;;;11.43;100.00;99432.63;5071890;28;20195;-81
2023/05/30 01:49:24;;;;;;;5.07;3.70;;;;;;;11.46;100.00;99429.50;5076868;28;20189;-78
2023/05/30 01:52:00;;;;;;;5.00;3.90;;;;;;;11.45;100.00;99432.41;5072074;28;20638;-80
2023/05/30 01:54:28;;;;;;;6.30;3.70;;;;;;;11.44;100.00;99431.56;5072392;28;20757;-80
2023/05/30 01:57:01;;;;;;;4.03;3.43;;;;;;;11.40;100.00;99422.34;5076048;28;20194;-81
2023/05/30 01:59:30;;;;;;;4.83;3.60;;;;;;;11.41;100.00;99423.19;5059424;28;20217;-81
2023/05/30 02:01:58;;;;;;;4.87;3.53;;;;;;;11.38;100.00;99420.97;5077596;28;20206;-79
2023/05/30 02:04:25;;;;;;;4.10;3.60;;;;;;;11.31;100.00;99420.22;5061000;28;20247;-80
2023/05/30 02:06:53;;;;;;;4.43;4.03;;;;;;;11.35;100.00;99418.72;5066281;28;20214;-80
2023/05/30 02:09:21;;;;;;;4.77;4.20;;;;;;;11.35;100.00;99422.22;5067015;28;20193;-80
2023/05/30 02:11:48;;;;;;;5.23;3.60;;;;;;;11.34;100.00;99428.63;5064420;28;20252;-80
2023/05/30 02:14:35;;;;;;;5.27;3.57;;;;;;;11.31;100.00;99421.06;5041068;28;20217;-80
2023/05/30 02:17:03;;;;;;;3.90;3.50;;;;;;;11.29;100.00;99433.84;5044754;28;20269;-80
2023/05/30 02:19:30;;;;;;;4.27;3.83;;;;;;;11.25;100.00;99429.19;5066352;28;20186;-81
2023/05/30 02:21:58;;;;;;;6.53;4.40;;;;;;;11.24;100.00;99419.53;5074796;28;20236;-80
2023/05/30 02:24:25;;;;;;;4.40;3.60;;;;;;;11.23;100.00;99420.56;5077450;28;20193;-80
2023/05/30 02:26:52;;;;;;;4.70;3.77;;;;;;;11.19;100.00;99428.25;5063130;28;20205;-80
2023/05/30 02:29:19;;;;;;;4.43;3.90;;;;;;;11.23;100.00;99433.97;5066823;28;20203;-80
2023/05/30 02:31:53;;;;;;;4.50;3.77;;;;;;;11.24;100.00;99433.75;5080724;28;20225;-80
2023/05/30 02:34:20;;;;;;;4.97;3.23;;;;;;;11.15;100.00;99435.09;5064625;28;20205;-80
2023/05/30 02:36:47;;;;;;;5.20;3.97;;;;;;;11.15;100.00;99435.09;5068497;28;20190;-80
2023/05/30 02:39:16;;;;;;;5.13;3.33;;;;;;;11.17;100.00;99435.69;5077811;28;20195;-80
2023/05/30 02:41:43;;;;;;;4.07;3.57;;;;;;;11.11;100.00;99428.56;5080803;28;20210;-80
2023/05/30 02:44:11;;;;;;;4.80;3.80;;;;;;;11.07;100.00;99430.06;5073117;28;20206;-80
2023/05/30 02:46:41;;;;;;;4.07;3.67;;;;;;;11.07;100.00;99430.06;5065256;28;20195;-80
2023/05/30 02:49:09;;;;;;;4.37;3.80;;;;;;;11.00;100.00;99437.38;5071464;28;20208;-81
2023/05/30 02:51:37;;;;;;;4.67;3.70;;;;;;;11.02;100.00;99432.59;5067394;28;20230;-81
2023/05/30 02:54:06;;;;;;;4.43;3.60;;;;;;;11.07;100.00;99443.47;5068492;28;20202;-80
2023/05/30 02:57:06;;;;;;;4.90;3.73;;;;;;;11.02;100.00;99438.78;5068537;28;20200;-80
2023/05/30 02:59:49;;;;;;;5.00;3.50;;;;;;;11.00;100.00;99434.72;5063333;28;20206;-80
2023/05/30 03:02:16;;;;;;;4.33;3.67;;;;;;;11.01;100.00;99447.06;5078379;28;20204;-80
2023/05/30 03:04:45;;;;;;;4.93;3.60;;;;;;;11.02;100.00;99451.38;5063187;28;20716;-80
2023/05/30 03:07:17;;;;;;;3.80;3.47;;;;;;;11.00;100.00;99450.78;5060122;28;20234;-80
2023/05/30 03:09:45;;;;;;;5.93;3.80;;;;;;;11.02;100.00;99454.06;5044860;28;20260;-80
2023/05/30 03:12:13;;;;;;;5.87;3.80;;;;;;;11.02;100.00;99451.38;5062541;28;20220;-80
2023/05/30 03:14:40;;;;;;;4.40;3.63;;;;;;;11.07;100.00;99450.69;5061202;28;20197;-81
2023/05/30 03:17:07;;;;;;;5.40;3.70;;;;;;;11.16;100.00;99454.69;5073001;28;20254;-80
2023/05/30 03:19:34;;;;;;;6.00;3.63;;;;;;;11.18;100.00;99457.97;5064113;28;20225;-80
2023/05/30 03:22:04;;;;;;;5.37;3.47;;;;;;;11.21;100.00;99462.88;5062671;28;20193;-80
2023/05/30 03:24:31;;;;;;;3.73;3.37;;;;;;;11.26;100.00;99458.47;5068064;28;20186;-80
2023/05/30 03:26:58;;;;;;;4.93;3.63;;;;;;;11.33;100.00;99461.06;5068047;28;20193;-80
2023/05/30 03:29:26;;;;;;;3.97;3.57;;;;;;;11.35;100.00;99459.78;5050668;28;20251;-80
2023/05/30 03:31:52;;;;;;;5.13;3.77;;;;;;;11.41;100.00;99469.59;5053801;28;20227;-80
2023/05/30 03:34:20;;;;;;;4.03;3.60;;;;;;;11.45;100.00;99472.63;5065387;28;20204;-80
2023/05/30 03:36:52;;;;;;;4.53;3.20;;;;;;;11.48;100.00;99467.63;5070824;28;20247;-80
2023/05/30 03:39:21;;;;;;;4.57;3.80;;;;;;;11.55;100.00;99470.22;5059702;28;20302;-81
2023/05/30 03:41:49;;;;;;;5.13;3.70;;;;;;;11.59;100.00;99468.72;5060227;28;20800;-80
2023/05/30 03:44:17;;;;;;;4.03;3.67;;;;;;;11.72;100.00;99475.72;5065917;28;20218;-80
2023/05/30 03:46:44;;;;;;;4.90;3.43;;;;;;;11.81;100.00;99469.81;5070394;28;20227;-80
2023/05/30 03:49:11;;;;;;;4.10;3.70;;;;;;;11.90;100.00;99473.81;5064380;28;20181;-80
2023/05/30 03:51:38;;;;;;;4.07;3.67;;;;;;;11.99;100.00;99476.97;5064322;28;20210;-81
2023/05/30 03:54:06;;;;;;;4.27;3.50;;;;;;;12.09;100.00;99482.56;5060954;28;20187;-80
2023/05/30 03:56:33;;;;;;;4.37;3.30;;;;;;;12.26;100.00;99477.34;5062568;28;20236;-79
2023/05/30 03:59:00;;;;;;;4.20;3.60;;;;;;;12.38;100.00;99485.38;5063373;28;20586;-79
2023/05/30 04:01:30;;;;;;;4.03;3.63;;;;;;;12.55;100.00;99492.50;5049220;28;20199;-80
2023/05/30 04:03:58;;;;;;;5.83;3.23;;;;;;;12.94;100.00;99485.53;5069645;28;20248;-80
2023/05/30 04:06:25;;;;;;;5.70;3.87;;;;;;;13.42;100.00;99487.03;5070934;28;20210;-80
2023/05/30 04:08:51;;;;;;;4.07;3.67;;;;;;;14.04;100.00;99491.31;5073758;28;20230;-80
2023/05/30 04:11:19;;;;;;;4.03;3.30;;;;;;;14.72;100.00;99492.88;5074298;28;20210;-80
2023/05/30 04:13:45;;;;;;;6.00;3.70;;;;;;;15.42;100.00;99497.50;5064541;28;20204;-80
2023/05/30 04:16:13;;;;;;;4.40;3.10;;;;;;;16.19;100.00;99494.44;5067073;28;20193;-80
2023/05/30 04:18:44;;;;;;;5.53;3.20;;;;;;;16.80;100.00;99486.75;5059572;28;20196;-80
2023/05/30 04:21:15;;;;;;;3.73;3.30;;;;;;;17.17;100.00;99498.22;5057514;28;20204;-80
2023/05/30 04:23:44;;;;;;;4.10;3.60;;;;;;;17.14;100.00;99494.16;5056232;28;20194;-79
2023/05/30 04:26:10;;;;;;;4.37;3.40;;;;;;;16.95;100.00;99492.19;5056076;28;20687;-79
2023/05/30 04:28:44;;;;;;;6.43;3.67;;;;;;;16.74;100.00;99488.59;5065476;28;20194;-79
2023/05/30 04:31:14;;;;;;;4.60;3.53;;;;;;;16.49;100.00;99483.81;5051475;28;20286;-79
2023/05/30 04:33:50;;;;;;;4.47;3.40;;;;;;;16.24;100.00;99489.06;5056452;28;20189;-79
2023/05/30 04:36:20;;;;;;;5.30;3.70;;;;;;;16.11;100.00;99494.91;5070015;28;20569;-80
2023/05/30 04:38:49;;;;;;;4.80;3.40;;;;;;;16.10;100.00;99490.56;5055261;28;20234;-79
2023/05/30 04:41:20;;;;;;;5.27;3.40;;;;;;;16.27;100.00;99491.25;5070177;28;20218;-79
2023/05/30 04:43:48;;;;;;;5.10;3.53;;;;;;;16.42;100.00;99495.94;5067758;28;20232;-79
2023/05/30 04:46:21;;;;;;;4.53;3.60;;;;;;;16.48;100.00;99495.72;5065803;28;20246;-79
2023/05/30 04:48:53;;;;;;;8.10;4.23;;;;;;;16.61;100.00;99486.38;5045257;28;20220;-80
2023/05/30 04:51:20;;;;;;;5.33;3.80;;;;;;;16.84;100.00;99485.94;5051439;28;20197;-79
2023/05/30 04:53:49;;;;;;;5.50;4.07;;;;;;;16.95;100.00;99484.06;5062879;28;20221;-81
2023/05/30 04:56:17;;;;;;;6.07;3.80;;;;;;;16.97;100.00;99479.22;5064682;28;20193;-80
2023/05/30 04:58:48;;;;;;;4.23;3.53;;;;;;;16.95;100.00;99489.50;5062415;28;20185;-79
2023/05/30 05:01:18;;;;;;;4.83;3.50;;;;;;;17.06;100.00;99485.75;5065677;28;20192;-79
2023/05/30 05:03:45;;;;;;;7.67;3.40;;;;;;;17.10;100.00;99489.56;5066046;28;20274;-78
2023/05/30 05:06:13;;;;;;;5.37;3.53;;;;;;;17.07;100.00;99482.78;5078449;28;20200;-79
2023/05/30 05:08:41;;;;;;;5.37;3.90;;;;;;;17.17;100.00;99495.53;5058457;28;20230;-79
2023/05/30 05:11:08;;;;;;;7.70;3.80;;;;;;;17.22;100.00;99495.53;5046532;28;20247;-79
2023/05/30 05:13:35;;;;;;;5.10;3.73;;;;;;;17.30;100.00;99500.47;5056838;28;20221;-79
2023/05/30 05:16:04;;;;;;;4.10;3.70;;;;;;;17.35;100.00;99495.06;5058422;28;20185;-78
2023/05/30 05:18:32;;;;;;;7.47;4.00;;;;;;;17.46;100.00;99490.47;5065260;28;20184;-78
2023/05/30 05:20:59;;;;;;;6.87;3.50;;;;;;;17.73;100.00;99493.00;5061735;28;20190;-79
2023/05/30 05:23:28;;;;;;;7.33;3.83;;;;;;;18.00;100.00;99488.94;5058052;28;20652;-79
2023/05/30 05:25:56;;;;;;;6.97;3.70;;;;;;;18.31;100.00;99503.28;5066542;28;20186;-79
2023/05/30 05:28:23;;;;;;;6.17;3.53;;;;;;;18.61;100.00;99501.66;5057322;28;20199;-79
2023/05/30 05:30:50;;;;;;;5.27;3.60;;;;;;;18.94;100.00;99511.06;5065051;28;20194;-79
2023/05/30 05:33:17;;;;;;;5.23;3.50;;;;;;;19.05;100.00;99505.28;5072425;28;20232;-79
2023/05/30 05:35:46;;;;;;;5.30;3.53;;;;;;;19.10;100.00;99501.75;5050596;28;20197;-78
2023/05/30 05:38:13;;;;;;;7.00;3.40;;;;;;;19.36;100.00;99503.25;5038626;28;20186;-79
2023/05/30 05:40:41;;;;;;;5.33;3.73;;;;;;;19.43;100.00;99501.03;5061297;28;20250;-78
2023/05/30 05:43:08;;;;;;;5.73;3.67;;;;;;;19.52;100.00;99498.56;5064111;28;20200;-79
2023/05/30 05:45:35;;;;;;;7.53;3.50;;;;;;;19.85;100.00;99513.28;5071079;28;20205;-79
2023/05/30 05:48:02;;;;;;;4.20;3.47;;;;;;;20.06;99.45;99507.41;5065562;28;20207;-79
2023/05/30 05:50:29;;;;;;;4.57;3.60;;;;;;;19.81;97.29;99510.34;5058642;28;20274;-79
2023/05/30 05:52:55;;;;;;;5.93;3.63;;;;;;;20.12;94.35;99509.00;5060762;28;20253;-79
2023/05/30 05:55:22;;;;;;;4.93;3.50;;;;;;;20.07;92.45;99511.75;5059362;28;20209;-79
2023/05/30 05:57:49;;;;;;;4.90;3.43;;;;;;;19.80;91.36;99519.56;5057515;28;20677;-79
2023/05/30 06:00:16;;;;;;;5.07;3.23;;;;;;;20.00;90.29;99516.72;5058827;28;20249;-79
2023/05/30 06:02:43;;;;;;;5.60;3.30;;;;;;;20.08;90.22;99521.53;5060143;28;20198;-80
2023/05/30 06:05:09;;;;;;;4.47;3.53;;;;;;;20.27;89.46;99516.22;5057333;28;20196;-78
2023/05/30 06:07:36;;;;;;;4.63;3.57;;;;;;;20.40;88.73;99520.22;5050271;28;20240;-80
2023/05/30 06:10:03;;;;;;;5.37;3.97;;;;;;;20.44;87.45;99515.81;5052248;28;20194;-79
2023/05/30 06:12:30;;;;;;;6.40;3.67;;;;;;;20.62;86.90;99510.44;5064183;28;20222;-80
2023/05/30 06:14:57;;;;;;;8.33;3.73;;;;;;;20.75;84.76;99508.97;5067668;28;20187;-79
2023/05/30 06:17:23;;;;;;;5.90;3.53;;;;;;;20.64;84.37;99508.25;5073197;28;20657;-78
2023/05/30 06:19:51;;;;;;;5.23;3.60;;;;;;;20.59;84.72;99512.94;5076906;28;20199;-79
2023/05/30 06:22:18;;;;;;;7.10;3.90;;;;;;;21.22;83.98;99518.25;5057319;28;20190;-79
2023/05/30 06:24:46;;;;;;;5.07;3.50;;;;;;;20.99;81.24;99514.44;5070769;28;20198;-79
2023/05/30 06:27:13;;;;;;;5.13;3.10;;;;;;;21.12;81.46;99523.81;5069322;28;20196;-82
2023/05/30 06:29:41;;;;;;;4.47;3.57;;;;;;;21.00;80.85;99521.47;5070418;28;20190;-78
2023/05/30 06:32:08;;;;;;;4.30;3.33;;;;;;;21.13;82.15;99519.97;5067077;28;20269;-77
2023/05/30 06:34:43;;;;;;;5.67;3.80;;;;;;;20.87;80.15;99520.25;5067417;28;20194;-78
2023/05/30 06:37:10;;;;;;;6.60;3.60;;;;;;;20.67;80.22;99516.97;5069645;28;20202;-77
2023/05/30 06:39:38;;;;;;;5.23;3.40;;;;;;;20.89;81.14;99520.81;5060347;28;20189;-78
2023/05/30 06:42:09;;;;;;;4.47;3.40;;;;;;;21.14;80.83;99527.09;5049689;28;20254;-77
2023/05/30 06:44:42;;;;;;;5.20;3.83;;;;;;;21.43;78.47;99531.31;5055225;28;20549;-78
2023/05/30 06:47:09;;;;;;;4.90;3.80;;;;;;;21.49;78.74;99534.78;5048605;28;20199;-78
2023/05/30 06:49:36;;;;;;;5.23;3.67;;;;;;;21.47;78.68;99532.34;5060695;28;20656;-78
2023/05/30 06:52:03;;;;;;;5.97;3.30;;;;;;;21.54;77.27;99534.72;5054874;28;20232;-78
2023/05/30 06:54:31;;;;;;;5.60;3.20;;;;;;;21.62;77.63;99541.41;5052572;28;20280;-78
2023/05/30 06:57:04;;;;;;;5.43;3.70;;;;;;;21.34;77.61;99540.44;5058456;28;20304;-77
2023/05/30 06:59:33;;;;;;;5.90;3.50;;;;;;;21.53;77.96;99538.53;5057989;28;20199;-77
2023/05/30 07:02:00;;;;;;;5.17;3.40;;;;;;;21.59;76.71;99544.75;5055713;28;20694;-78
2023/05/30 07:04:26;;;;;;;6.73;3.47;;;;;;;21.89;75.93;99549.75;5054096;28;20658;-78
2023/05/30 07:06:53;;;;;;;4.40;3.37;;;;;;;22.08;77.11;99549.75;5059961;28;20194;-77
2023/05/30 07:09:20;;;;;;;5.33;3.33;;;;;;;21.89;76.22;99553.28;5055869;28;20203;-78
2023/05/30 07:11:47;;;;;;;6.33;3.83;;;;;;;22.07;76.11;99550.91;5061623;28;20195;-78
2023/05/30 07:14:14;;;;;;;4.83;3.73;;;;;;;21.92;74.92;99550.00;5055685;28;20268;-78
2023/05/30 07:16:40;;;;;;;5.67;3.70;;;;;;;22.15;73.84;99556.47;5052031;28;20188;-77
2023/05/30 07:19:07;;;;;;;5.17;3.57;;;;;;;22.55;72.74;99552.25;5057642;28;20186;-78
2023/05/30 07:21:39;;;;;;;5.70;3.60;;;;;;;22.57;72.41;99562.88;5059194;28;20719;-79
2023/05/30 07:24:06;;;;;;;5.77;3.50;;;;;;;22.79;72.46;99566.59;5058858;28;20192;-78
2023/05/30 07:26:34;;;;;;;7.30;3.83;;;;;;;22.69;70.38;99563.19;5059965;28;20289;-78
2023/05/30 07:29:00;;;;;;;5.97;3.63;;;;;;;22.61;71.19;99558.44;5060567;28;20674;-78
2023/05/30 07:31:27;;;;;;;5.57;3.13;;;;;;;22.79;71.37;99558.41;5060287;28;20226;-80
2023/05/30 07:33:54;;;;;;;5.73;3.63;;;;;;;22.60;69.36;99567.72;5064885;28;20236;-78
2023/05/30 07:36:21;;;;;;;5.17;3.90;;;;;;;22.70;69.63;99556.66;5061492;28;20673;-78
2023/05/30 07:38:48;;;;;;;7.80;4.03;;;;;;;22.66;68.19;99561.06;5065213;28;20201;-78
2023/05/30 07:41:15;;;;;;;5.53;3.83;;;;;;;22.59;68.59;99555.19;5058300;28;20224;-80
2023/05/30 07:43:42;;;;;;;8.93;4.40;;;;;;;22.79;68.32;99554.84;5050103;28;20237;-81
2023/05/30 07:46:08;;;;;;;8.20;3.70;;;;;;;23.18;67.55;99551.66;5032662;28;20189;-81
2023/05/30 07:48:35;;;;;;;5.93;3.80;;;;;;;22.89;67.62;99551.13;5053522;28;20195;-81
2023/05/30 07:51:02;;;;;;;5.72;3.88;;;;;;;23.39;67.98;99554.75;5055203;28;20566;-81
2023/05/30 07:53:29;;;;;;;4.70;3.60;;;;;;;23.78;66.38;99554.22;5049394;28;20314;-82
2023/05/30 07:55:55;;;;;;;5.60;3.90;;;;;;;23.81;66.10;99557.13;5047056;28;20189;-80
2023/05/30 07:58:23;;;;;;;6.65;4.20;;;;;;;23.91;65.01;99550.63;5053090;28;20215;-81
2023/05/30 08:00:50;;;;;;;6.70;3.40;;;;;;;24.09;64.99;99555.13;5055708;28;20604;-80
2023/05/30 08:03:17;;;;;;;7.88;4.03;;;;;;;23.80;65.44;99560.16;5061563;28;20547;-81
2023/05/30 08:05:46;;;;;;;5.57;3.47;;;;;;;24.11;65.71;99550.16;5054384;28;20186;-80
2023/05/30 08:08:13;;;;;;;5.25;3.60;;;;;;;24.08;64.99;99559.78;5055793;28;20236;-79
2023/05/30 08:10:40;;;;;;;9.77;3.45;;;;;;;23.89;66.44;99566.56;5057574;28;20193;-81
2023/05/30 08:13:07;;;;;;;5.75;3.70;;;;;;;23.77;63.99;99553.41;5050787;28;20283;-79
2023/05/30 08:15:34;;;;;;;5.53;3.80;;;;;;;24.07;65.32;99558.19;5054490;28;20648;-79
2023/05/30 08:18:01;;;;;;;8.02;4.40;;;;;;;;;;5045903;28;20202;-81
2023/05/30 08:20:29;;;;;;;6.25;4.05;;;;;;;23.65;63.50;99556.69;5050719;28;20182;-79
2023/05/30 08:22:56;;;;;;;4.75;4.00;;;;;;;23.30;63.84;99549.19;5055754;28;20189;-80
2023/05/30 08:25:33;;;;;;;9.15;4.00;;;;;;;23.18;65.88;99552.47;5061944;28;20193;-79
2023/05/30 08:27:59;;;;;;;6.90;3.92;;;;;;;23.62;65.77;99556.47;5058151;28;20197;-79
2023/05/30 08:30:26;;;;;;;5.20;3.40;;;;;;;23.33;65.65;99553.25;5060984;28;20189;-79
2023/05/30 08:32:54;;;;;;;5.90;3.97;;;;;;;23.30;65.13;99557.41;5064194;28;21030;-79
2023/05/30 08:35:21;;;;;;;6.30;3.95;;;;;;;23.93;64.06;99562.06;5055959;28;20193;-79
2023/05/30 08:37:47;;;;;;;6.00;4.00;;;;;;;22.85;63.63;99563.78;5055769;28;20280;-80
2023/05/30 08:40:15;;;;;;;6.00;3.67;;;;;;;22.92;64.91;99570.44;5060706;28;20189;-79
2023/05/30 08:42:42;;;;;;;4.95;3.90;;;;;;;22.76;65.91;99567.19;5061480;28;20241;-78
2023/05/30 08:45:10;;;;;;;9.33;4.77;;;;;;;23.63;64.62;99569.03;5042534;28;20597;-78
2023/05/30 08:47:37;;;;;;;7.40;3.88;;;;;;;23.57;65.58;99562.03;5057512;28;20264;-79
2023/05/30 08:50:06;;;;;;;5.03;4.32;;;;;;;23.66;65.28;99566.47;5054173;28;20193;-79
2023/05/30 08:52:35;;;;;;;5.68;3.75;;;;;;;24.07;63.56;99560.09;5060830;28;20210;-80
2023/05/30 08:55:07;;;;;;;6.57;4.20;;;;;;;24.45;63.60;99563.31;5056156;28;20601;-79
2023/05/30 08:57:37;;;;;;;9.00;3.75;;;;;;;24.21;63.73;99562.81;5061600;28;20219;-79
2023/05/30 09:00:11;;;;;;;6.22;3.83;;;;;;;24.02;63.72;99563.78;5062248;28;20194;-78
2023/05/30 09:02:38;;;;;;;6.38;4.25;;;;;;;24.73;64.23;99559.25;5065183;28;20202;-79
2023/05/30 09:05:07;;;;;;;7.47;4.05;;;;;;;24.98;64.85;99571.50;5053052;28;20193;-79
2023/05/30 09:07:34;;;;;;;8.40;3.90;;;;;;;24.22;65.54;99569.88;5058806;28;20237;-79
2023/05/30 09:10:02;;;;;;;6.60;4.45;;;;;;;23.78;66.27;99565.97;5074895;28;20199;-79
2023/05/30 09:12:29;;;;;;;7.63;4.50;;;;;;;24.72;63.85;99563.16;5072303;28;20556;-79
2023/05/30 09:14:56;;;;;;;6.05;3.95;;;;;;;24.52;64.26;99567.22;5054755;28;20187;-79
2023/05/30 09:17:23;;;;;;;5.35;3.83;;;;;;;24.50;64.31;99572.19;5063990;28;20199;-79
2023/05/30 09:19:50;;;;;;;8.18;4.25;;;;;;;24.72;63.17;99573.28;5064013;28;20196;-79
2023/05/30 09:22:17;;;;;;;6.55;4.22;;;;;;;24.25;63.17;99566.53;5065531;28;20197;-79
2023/05/30 09:24:59;;;;;;;4.60;3.88;;;;;;;24.20;63.88;99564.75;5059189;28;20255;-81
2023/05/30 09:27:31;;;;;;;6.20;4.20;;;;;;;24.88;62.87;99569.84;5057897;28;20252;-79
2023/05/30 09:30:05;;;;;;;5.63;3.92;;;;;;;24.74;61.16;99560.06;5038878;28;20589;-79
2023/05/30 09:32:34;;;;;;;8.55;4.57;;;;;;;25.34;62.36;99571.31;5061251;28;20196;-79
2023/05/30 09:35:12;;;;;;;7.18;3.63;;;;;;;25.66;61.71;99564.66;5048049;28;20182;-81
2023/05/30 09:37:42;;;;;;;7.05;4.30;;;;;;;24.80;61.25;99565.13;5065396;28;20245;-80
2023/05/30 09:40:16;;;;;;;8.40;4.28;;;;;;;25.34;60.69;99574.84;5057352;28;20196;-79
2023/05/30 09:42:44;;;;;;;8.07;3.95;;;;;;;25.38;60.50;99572.31;5049747;28;20218;-79
2023/05/30 09:45:13;;;;;;;8.07;4.60;;;;;;;25.11;59.16;99576.06;5056788;28;20193;-79
2023/05/30 09:47:44;;;;;;;13.52;5.25;;;;;;;25.36;60.30;99567.13;5059216;28;20198;-79
2023/05/30 09:50:16;;;;;;;8.70;4.15;;;;;;;25.36;61.71;99580.84;5058975;28;20198;-79
2023/05/30 09:52:44;;;;;;;7.57;4.20;;;;;;;25.64;59.38;99575.94;5063487;28;20219;-79
2023/05/30 09:55:15;;;;;;;7.57;3.72;;;;;;;25.57;60.92;99583.03;5053607;28;20189;-78
2023/05/30 09:57:49;;;;;;;8.43;4.47;;;;;;;26.00;58.51;99572.09;5054867;28;20185;-79
2023/05/30 10:00:21;;;;;;;9.02;4.05;;;;;;;25.11;59.43;99583.47;5066695;28;20218;-81
2023/05/30 10:02:55;;;;;;;5.63;4.03;;;;;;;25.09;58.92;99581.09;5056699;28;20185;-80
2023/05/30 10:05:24;;;;;;;6.50;4.13;;;;;;;25.54;59.17;99576.25;5068897;28;20202;-79
2023/05/30 10:07:53;;;;;;;6.68;4.30;;;;;;;25.78;57.78;99581.28;5052526;28;20286;-79
2023/05/30 10:10:20;;;;;;;8.10;4.28;;;;;;;25.24;57.94;99577.09;5060507;28;20244;-79
2023/05/30 10:12:52;;;;;;;6.40;4.18;;;;;;;25.34;59.26;99579.53;5069267;28;20196;-78
2023/05/30 10:15:23;;;;;;;9.27;4.10;;;;;;;26.39;58.52;99588.44;5063458;28;20223;-79
2023/05/30 10:18:10;;;;;;;6.50;4.15;;;;;;;24.40;58.36;99580.66;5056379;28;20274;-79
2023/05/30 10:20:39;;;;;;;4.88;3.40;;;;;;;25.44;58.25;99573.75;5060189;28;20303;-79
2023/05/30 10:23:07;;;;;;;5.85;4.07;;;;;;;25.12;58.17;99585.09;5057117;28;20618;-78
2023/05/30 10:25:36;;;;;;;6.53;4.28;;;;;;;24.70;59.05;99584.56;5049157;28;20201;-80
2023/05/30 10:28:06;;;;;;;6.85;3.92;;;;;;;25.08;59.70;99579.47;5059742;28;20189;-80
2023/05/30 10:30:33;;;;;;;5.63;4.20;;;;;;;25.18;57.84;99579.19;5051187;28;20219;-81
2023/05/30 10:33:07;;;;;;;6.80;3.80;;;;;;;25.91;58.06;99579.50;5054236;28;20210;-82
2023/05/30 10:35:35;;;;;;;6.13;4.20;;;;;;;24.71;59.89;99568.94;5051662;28;20660;-80
2023/05/30 10:38:11;;;;;;;5.15;4.00;;;;;;;25.34;58.76;99565.81;5058440;28;20722;-80
2023/05/30 10:40:52;;;;;;;15.70;4.68;;;;;;;25.26;59.30;99574.84;5051450;28;20673;-81
2023/05/30 10:43:55;;;;;;;7.45;4.45;;;;;;;25.22;57.36;99568.38;5050215;28;20195;-82
2023/05/30 10:46:51;;;;;;;9.13;4.40;;;;;;;25.52;57.08;99562.03;5035038;28;20252;-81
2023/05/30 10:49:23;;;;;;;5.88;3.80;;;;;;;26.20;54.40;99561.28;5058159;28;20244;-79
2023/05/30 10:52:00;;;;;;;6.80;3.90;;;;;;;25.95;55.02;99559.34;5052633;28;20195;-79
2023/05/30 10:54:34;;;;;;;7.57;3.95;;;;;;;25.50;56.91;99561.53;5060239;28;20204;-79
2023/05/30 10:57:27;;;;;;;5.75;3.65;;;;;;;25.67;54.38;99567.06;5062647;28;20200;-79
2023/05/30 10:59:56;;;;;;;5.82;3.88;;;;;;;25.86;51.70;99562.06;5051355;28;20200;-79
2023/05/30 11:02:36;;;;;;;6.95;4.15;;;;;;;26.04;53.26;99571.13;5052400;28;20676;-79
2023/05/30 11:05:05;;;;;;;7.35;4.10;;;;;;;26.00;54.23;99569.34;5053537;28;20283;-79
2023/05/30 11:07:34;;;;;;;7.65;4.18;;;;;;;26.73;52.87;99569.16;5065018;28;20228;-79
2023/05/30 11:10:04;;;;;;;7.18;3.53;;;;;;;25.81;53.13;99569.66;5056410;28;20280;-79
2023/05/30 11:12:41;;;;;;;6.75;3.97;;;;;;;26.54;52.87;99567.88;5057590;28;20193;-79
2023/05/30 11:15:08;;;;;;;5.55;4.05;;;;;;;26.09;51.10;99559.16;5061117;28;20209;-79
2023/05/30 11:17:36;;;;;;;5.47;4.13;;;;;;;26.11;51.75;99551.44;5059158;28;20710;-79
2023/05/30 11:20:09;;;;;;;5.53;4.05;;;;;;;26.68;51.89;99561.06;5055379;28;20227;-82
2023/05/30 11:22:37;;;;;;;6.15;4.13;;;;;;;26.30;51.59;99551.94;5048147;28;20202;-80
2023/05/30 11:25:17;;;;;;;8.85;3.67;;;;;;;26.39;51.99;99549.16;5048926;28;20607;-79
2023/05/30 11:28:12;;;;;;;5.45;3.78;;;;;;;26.42;51.78;99554.00;5051166;28;20212;-79
2023/05/30 11:30:44;;;;;;;7.47;3.80;;;;;;;27.42;51.92;99540.56;5057179;28;20200;-80
2023/05/30 11:33:12;;;;;;;6.25;3.80;;;;;;;27.33;48.67;99543.34;5038446;28;20292;-79
2023/05/30 11:35:44;;;;;;;6.55;4.05;;;;;;;27.37;48.14;99533.28;5055949;28;20743;-80
2023/05/30 11:38:19;;;;;;;12.13;4.15;;;;;;;27.25;48.92;99537.91;5055086;28;20194;-79
2023/05/30 11:40:46;;;;;;;9.35;4.20;;;;;;;26.51;49.10;99535.56;5056918;28;20219;-81
2023/05/30 11:43:15;;;;;;;8.05;3.72;;;;;;;27.09;48.64;99541.22;5051438;28;20279;-79